Time;durP1;ratioP1;P1;durP2;ratioP2;P2;SDS_P1;SDS_P2;PMS_P1;PMS_P2;Temp;Humidity;BMP_temperature;BMP_pressure;BME280_temperature;BME280_humidity;BME280_pressure;Samples;Min_cycle;Max_cycle;Signal;HPM_P1;HPM_P2
2022/09/06 00:05:48;;;;;;;0.47;0.20;;;18.30;99.90;;;;;;21001342;28;20040;-79
2022/09/06 00:15:49;;;;;;;0.60;0.30;;;18.30;99.90;;;;;;20993188;28;20381;-79
2022/09/06 00:25:50;;;;;;;0.98;0.43;;;18.30;99.90;;;;;;21011457;28;20044;-79
2022/09/06 00:35:58;;;;;;;1.10;0.65;;;18.10;99.90;;;;;;20989217;28;20048;-79
2022/09/06 00:46:00;;;;;;;1.38;0.60;;;18.20;99.90;;;;;;20989798;28;20332;-79
2022/09/06 00:56:02;;;;;;;0.85;0.50;;;18.20;99.90;;;;;;21005375;28;20085;-79
2022/09/06 01:06:09;;;;;;;1.08;0.52;;;18.10;99.90;;;;;;20998209;28;20032;-80
2022/09/06 01:16:19;;;;;;;2.23;0.80;;;18.10;99.90;;;;;;20994796;28;20518;-81
2022/09/06 01:27:13;;;;;;;0.45;0.32;;;18.10;99.90;;;;;;20981481;28;20456;-81
2022/09/06 01:37:18;;;;;;;2.08;1.15;;;18.20;99.90;;;;;;20980057;28;20978;-81
2022/09/06 01:47:55;;;;;;;1.60;0.60;;;18.20;99.90;;;;;;20988534;28;20028;-81
2022/09/06 01:58:16;;;;;;;2.28;0.90;;;18.20;99.90;;;;;;20957430;28;20643;-81
2022/09/06 02:08:48;;;;;;;1.25;0.70;;;18.20;99.90;;;;;;21024019;28;20032;-81
2022/09/06 02:18:58;;;;;;;1.35;0.50;;;18.30;99.90;;;;;;20979409;28;20453;-81
2022/09/06 02:29:00;;;;;;;2.97;1.25;;;18.30;99.90;;;;;;20997859;28;20478;-80
2022/09/06 02:39:01;;;;;;;1.05;0.50;;;18.20;99.90;;;;;;20988009;28;20044;-80
2022/09/06 02:49:03;;;;;;;1.02;0.47;;;18.10;99.90;;;;;;20998175;28;20048;-80
2022/09/06 02:59:04;;;;;;;1.50;0.60;;;18.00;99.90;;;;;;20989514;28;20040;-80
2022/09/06 03:09:05;;;;;;;1.77;0.70;;;17.90;99.90;;;;;;21006830;28;20044;-80
2022/09/06 03:19:06;;;;;;;1.60;0.90;;;17.90;99.90;;;;;;21017033;28;20090;-80
2022/09/06 03:29:07;;;;;;;1.67;0.63;;;17.80;99.90;;;;;;20979030;28;20024;-81
2022/09/06 03:39:08;;;;;;;1.98;0.60;;;17.80;99.90;;;;;;20995540;28;20048;-81
2022/09/06 03:49:09;;;;;;;1.80;0.93;;;17.70;99.90;;;;;;21018350;28;20040;-81
2022/09/06 03:59:10;;;;;;;2.20;1.00;;;17.60;99.90;;;;;;20989885;28;20036;-81
2022/09/06 04:09:11;;;;;;;3.17;1.35;;;17.60;99.90;;;;;;20996730;28;20673;-81
2022/09/06 04:19:12;;;;;;;2.60;1.13;;;17.60;99.90;;;;;;20998688;28;20063;-81
2022/09/06 04:29:13;;;;;;;2.55;1.38;;;17.70;99.90;;;;;;20975631;28;20031;-81
2022/09/06 04:39:14;;;;;;;3.65;1.85;;;17.60;99.90;;;;;;20978070;28;20068;-81
2022/09/06 04:49:15;;;;;;;3.85;2.00;;;17.60;99.90;;;;;;20973934;28;20483;-81
2022/09/06 04:59:16;;;;;;;2.53;1.65;;;17.60;99.90;;;;;;20982506;28;20044;-81
2022/09/06 05:09:17;;;;;;;2.90;1.83;;;17.50;99.90;;;;;;20966278;28;20032;-81
2022/09/06 05:19:18;;;;;;;3.53;1.75;;;17.40;99.90;;;;;;20981211;28;20032;-81
2022/09/06 05:29:19;;;;;;;4.72;1.67;;;17.40;99.90;;;;;;20978127;28;20032;-81
2022/09/06 05:39:20;;;;;;;3.25;2.00;;;17.40;99.90;;;;;;20996634;28;20408;-81
2022/09/06 05:49:21;;;;;;;3.53;2.25;;;17.40;99.90;;;;;;20995855;28;20074;-81
2022/09/06 05:59:22;;;;;;;5.10;2.38;;;17.40;99.90;;;;;;20991698;28;20044;-81
2022/09/06 06:09:23;;;;;;;8.13;3.42;;;17.40;99.90;;;;;;20973671;28;20052;-81
2022/09/06 06:19:25;;;;;;;4.60;2.50;;;17.60;99.90;;;;;;20988398;28;20044;-81
2022/09/06 06:29:26;;;;;;;6.07;2.88;;;17.80;99.90;;;;;;21005248;28;20453;-81
2022/09/06 06:39:27;;;;;;;4.38;2.70;;;17.90;99.90;;;;;;20996611;28;20384;-81
2022/09/06 06:49:28;;;;;;;4.10;2.72;;;18.10;99.90;;;;;;20987504;28;20028;-81
2022/09/06 06:59:30;;;;;;;5.88;2.95;;;18.30;99.90;;;;;;20972822;28;20048;-81
2022/09/06 07:09:31;;;;;;;4.63;2.10;;;18.50;99.90;;;;;;21009533;28;20044;-81
2022/09/06 07:19:32;;;;;;;2.83;1.80;;;18.80;99.90;;;;;;21017185;28;20036;-81
2022/09/06 07:29:33;;;;;;;2.75;1.50;;;19.00;99.90;;;;;;20990369;28;20040;-81
2022/09/06 07:39:35;;;;;;;3.20;1.80;;;19.40;99.90;;;;;;21019588;28;20529;-81
2022/09/06 07:49:36;;;;;;;4.78;1.45;;;19.50;99.90;;;;;;21014968;28;20028;-81
2022/09/06 07:59:37;;;;;;;2.50;1.52;;;19.80;99.90;;;;;;21010386;28;20047;-81
2022/09/06 08:09:38;;;;;;;3.58;1.50;;;20.00;99.90;;;;;;20992073;28;20312;-81
2022/09/06 08:19:39;;;;;;;2.40;1.10;;;20.40;99.90;;;;;;20996767;28;20037;-81
2022/09/06 08:29:40;;;;;;;3.13;1.42;;;20.90;99.90;;;;;;20992339;28;20036;-81
2022/09/06 08:39:41;;;;;;;3.40;1.33;;;21.20;99.90;;;;;;20989371;28;20058;-81
2022/09/06 08:49:48;;;;;;;2.63;1.15;;;21.50;99.90;;;;;;20986117;28;20049;-81
2022/09/06 08:59:53;;;;;;;2.05;1.00;;;21.80;99.90;;;;;;21007873;28;20043;-81
2022/09/06 09:09:57;;;;;;;3.38;1.00;;;22.30;99.90;;;;;;21002207;28;20804;-81
2022/09/06 09:19:58;;;;;;;3.22;1.13;;;22.60;99.90;;;;;;21002617;28;20508;-81
2022/09/06 09:30:03;;;;;;;3.53;1.23;;;22.80;99.90;;;;;;20988947;28;20035;-81
2022/09/06 09:40:04;;;;;;;3.10;1.38;;;22.80;99.90;;;;;;20984176;28;20056;-81
2022/09/06 09:50:26;;;;;;;2.08;1.20;;;23.40;99.90;;;;;;21008902;28;20040;-80
2022/09/06 10:00:41;;;;;;;1.70;0.75;;;23.60;99.90;;;;;;21011538;28;20044;-80
2022/09/06 10:10:46;;;;;;;2.63;1.00;;;23.60;99.90;;;;;;21001955;28;20032;-80
2022/09/06 10:20:55;;;;;;;1.90;0.70;;;23.50;99.90;;;;;;21003200;28;20039;-80
2022/09/06 10:31:28;;;;;;;2.83;1.17;;;24.20;99.90;;;;;;20997195;28;20690;-80
2022/09/06 10:42:04;;;;;;;3.28;1.17;;;24.60;99.90;;;;;;21006422;28;20056;-80
2022/09/06 10:52:10;;;;;;;13.15;1.30;;;24.70;99.90;;;;;;20995446;28;21182;-80
2022/09/06 11:02:56;;;;;;;2.58;1.55;;;25.00;99.90;;;;;;21006083;28;20029;-80
2022/09/06 11:13:02;;;;;;;2.25;1.30;;;25.40;99.90;;;;;;20997378;28;20494;-80
2022/09/06 11:23:19;;;;;;;2.38;1.30;;;25.90;99.90;;;;;;21004953;28;20036;-80
2022/09/06 11:33:27;;;;;;;2.10;1.27;;;26.30;99.90;;;;;;20998124;28;20368;-80
2022/09/06 11:43:49;;;;;;;3.55;1.17;;;26.90;99.90;;;;;;20995731;28;20039;-80
2022/09/06 11:53:50;;;;;;;3.47;1.50;;;26.20;99.90;;;;;;20976590;28;20048;-80
2022/09/06 12:03:54;;;;;;;3.33;1.50;;;27.00;99.90;;;;;;20987213;28;20086;-80
2022/09/06 12:14:04;;;;;;;2.72;1.42;;;26.90;99.90;;;;;;20992984;28;20715;-80
2022/09/06 12:24:07;;;;;;;6.57;3.05;;;27.10;99.90;;;;;;20986921;28;20031;-80
2022/09/06 12:34:13;;;;;;;3.38;1.92;;;27.60;99.90;;;;;;21012579;28;20353;-80
2022/09/06 12:44:15;;;;;;;3.28;1.65;;;27.50;99.90;;;;;;21002948;28;20098;-80
2022/09/06 12:54:23;;;;;;;1.80;0.90;;;26.40;99.90;;;;;;21010573;28;20093;-80
2022/09/06 13:04:48;;;;;;;4.25;2.03;;;26.90;99.90;;;;;;21009261;28;20057;-80
2022/09/06 13:14:56;;;;;;;2.50;1.50;;;28.40;99.90;;;;;;20997448;28;20059;-80
2022/09/06 13:24:57;;;;;;;3.03;1.92;;;28.90;99.90;;;;;;20983992;28;20925;-80
2022/09/06 13:34:59;;;;;;;5.45;1.63;;;28.90;99.90;;;;;;20994839;28;20044;-80
2022/09/06 13:45:26;;;;;;;4.05;1.27;;;29.40;99.90;;;;;;21000062;28;20446;-80
2022/09/06 13:55:32;;;;;;;1.63;0.80;;;29.70;99.40;;;;;;20997408;28;20658;-80
2022/09/06 14:05:37;;;;;;;1.10;0.60;;;29.80;99.90;;;;;;20998502;28;20053;-80
2022/09/06 14:15:39;;;;;;;3.13;1.60;;;29.50;99.90;;;;;;20983021;28;20097;-80
2022/09/06 14:25:40;;;;;;;2.95;1.52;;;28.60;99.90;;;;;;20996728;28;20223;-80
2022/09/06 14:35:41;;;;;;;2.03;1.00;;;28.30;99.90;;;;;;20992066;28;20507;-80
2022/09/06 14:45:42;;;;;;;1.77;0.30;;;28.00;99.90;;;;;;20997310;28;20028;-80
2022/09/06 14:55:43;;;;;;;0.30;0.10;;;27.50;97.70;;;;;;20991942;28;20047;-80
2022/09/06 15:05:44;;;;;;;0.93;0.80;;;27.40;96.80;;;;;;20989183;28;20044;-80
2022/09/06 15:15:45;;;;;;;0.40;0.10;;;27.30;95.50;;;;;;20984464;28;20044;-80
2022/09/06 15:25:50;;;;;;;0.30;0.17;;;26.80;95.70;;;;;;20996033;28;20032;-80
2022/09/06 15:35:55;;;;;;;0.77;0.20;;;26.20;97.60;;;;;;20992424;28;20070;-80
2022/09/06 15:45:56;;;;;;;0.20;0.10;;;26.30;99.00;;;;;;20985515;28;20285;-80
2022/09/06 15:55:59;;;;;;;1.10;0.40;;;26.40;98.00;;;;;;21003590;28;20159;-80
2022/09/06 16:06:11;;;;;;;0.73;0.22;;;26.20;97.80;;;;;;21002293;28;20032;-80
2022/09/06 16:16:14;;;;;;;0.90;0.30;;;25.70;99.90;;;;;;21008608;28;20094;-80
2022/09/06 16:26:15;;;;;;;0.63;0.20;;;25.40;99.90;;;;;;21004114;28;20028;-80
2022/09/06 16:36:17;;;;;;;0.70;0.20;;;25.30;99.90;;;;;;20992410;28;20055;-80
2022/09/06 16:46:22;;;;;;;0.77;0.30;;;25.20;99.90;;;;;;21000585;28;20097;-80
2022/09/06 16:56:26;;;;;;;1.42;0.50;;;25.10;99.90;;;;;;21007082;28;20048;-80
2022/09/06 17:06:28;;;;;;;0.70;0.30;;;24.90;99.90;;;;;;21015709;28;20036;-80
2022/09/06 17:26:48;;;;;;;0.63;0.30;;;24.50;99.90;;;;;;21007846;28;20028;-80
2022/09/06 17:36:49;;;;;;;1.10;0.47;;;24.30;99.90;;;;;;20991024;28;20036;-80
2022/09/06 17:46:51;;;;;;;1.33;0.52;;;24.10;99.90;;;;;;21028557;28;20047;-80
2022/09/06 17:56:52;;;;;;;3.20;1.33;;;24.00;99.90;;;;;;21029242;28;20046;-80
2022/09/06 18:06:53;;;;;;;2.47;1.10;;;23.80;99.90;;;;;;20986265;28;20586;-80
2022/09/06 18:16:54;;;;;;;3.17;1.00;;;23.80;99.90;;;;;;21006110;28;20032;-80
2022/09/06 18:26:55;;;;;;;2.35;0.82;;;23.60;99.90;;;;;;21024933;28;20124;-80
2022/09/06 18:36:57;;;;;;;2.60;0.93;;;23.40;99.90;;;;;;21008282;28;20036;-79
2022/09/06 18:47:00;;;;;;;1.88;0.90;;;23.40;99.90;;;;;;20997037;28;20892;-80
2022/09/06 18:57:02;;;;;;;1.73;0.90;;;23.30;99.90;;;;;;21001695;28;20176;-80
2022/09/06 19:07:03;;;;;;;1.35;0.60;;;23.10;99.90;;;;;;20996405;28;20484;-80
2022/09/06 19:17:04;;;;;;;1.65;0.90;;;23.00;99.90;;;;;;20975528;28;20668;-80
2022/09/06 19:27:05;;;;;;;1.83;0.95;;;22.90;99.90;;;;;;20986222;28;20040;-80
2022/09/06 19:37:06;;;;;;;1.83;1.08;;;22.80;99.90;;;;;;20978498;28;20516;-79
2022/09/06 19:47:07;;;;;;;2.20;1.00;;;22.70;99.90;;;;;;20993595;28;20499;-80
2022/09/06 19:57:08;;;;;;;1.70;0.50;;;22.50;99.90;;;;;;20989102;28;20035;-80
2022/09/06 20:07:09;;;;;;;1.92;0.75;;;22.30;99.90;;;;;;21002636;28;20110;-80
2022/09/06 20:17:10;;;;;;;2.47;1.45;;;22.30;99.90;;;;;;20975867;28;20030;-80
2022/09/06 20:27:11;;;;;;;3.78;1.33;;;22.20;99.90;;;;;;20988814;28;20145;-80
2022/09/06 20:37:12;;;;;;;2.55;0.80;;;22.20;99.90;;;;;;20968327;28;20707;-80
2022/09/06 20:47:13;;;;;;;2.70;0.95;;;22.00;99.90;;;;;;20989971;28;20369;-79
2022/09/06 20:57:14;;;;;;;2.35;0.90;;;21.80;99.90;;;;;;20988571;28;20032;-79
2022/09/06 21:07:15;;;;;;;3.13;1.20;;;21.70;99.90;;;;;;20997462;28;20024;-80
2022/09/06 21:17:16;;;;;;;3.53;1.27;;;21.60;99.90;;;;;;20986653;28;20043;-79
2022/09/06 21:27:17;;;;;;;3.20;1.10;;;21.40;99.90;;;;;;20993003;28;20032;-80
2022/09/06 21:37:18;;;;;;;2.35;1.25;;;21.10;99.90;;;;;;20993917;28;20059;-80
2022/09/06 21:47:19;;;;;;;7.47;2.55;;;21.00;99.90;;;;;;20992722;28;20029;-80
2022/09/06 21:57:20;;;;;;;3.28;1.38;;;20.80;99.90;;;;;;21029149;28;20494;-80
2022/09/06 22:07:21;;;;;;;3.53;1.20;;;20.40;99.90;;;;;;21009237;28;20612;-80
2022/09/06 22:17:22;;;;;;;2.67;1.13;;;19.80;99.90;;;;;;21027553;28;20036;-80
2022/09/06 22:27:23;;;;;;;2.92;1.23;;;19.00;99.90;;;;;;21005414;28;20035;-82
2022/09/06 22:37:24;;;;;;;1.80;0.70;;;18.30;99.90;;;;;;21003734;28;20484;-83
2022/09/06 22:47:25;;;;;;;1.83;0.75;;;17.70;99.90;;;;;;20983722;28;20475;-82
2022/09/06 22:57:26;;;;;;;2.17;0.88;;;17.30;99.90;;;;;;20987479;28;20043;-82
2022/09/06 23:07:27;;;;;;;2.17;1.25;;;17.10;99.90;;;;;;20988670;28;20028;-83
2022/09/06 23:17:28;;;;;;;2.08;0.88;;;17.10;99.90;;;;;;20980948;28;20032;-83
2022/09/06 23:27:29;;;;;;;4.25;0.90;;;17.20;99.90;;;;;;20972762;28;20423;-82
2022/09/06 23:37:33;;;;;;;3.05;1.65;;;17.30;99.90;;;;;;20998200;28;20287;-81
2022/09/06 23:47:34;;;;;;;2.92;2.15;;;17.20;99.90;;;;;;20985874;28;20035;-82
2022/09/06 23:57:35;;;;;;;5.25;1.13;;;17.20;99.90;;;;;;21005810;28;20389;-81
